GBYWZ EGNH-EGNH

Flight info

Callsign GBYWZ
Flight time N/A
Altitude 7000
Route EGNH/31
Aircraft P28A/L-V/N

Departure

Time 2026-04-17 15:15
Airport Blackpool Airport (EGNH)

Arrival

Time N/A
Airport Blackpool Airport (EGNH)
Time Latitude Longitude Altitude Speed Heading
2026-04-17 15:09 53.77706 -3.04322 34 ft 0 kts 266°
2026-04-17 15:10 53.77704 -3.04354 34 ft 10 kts 250°
2026-04-17 15:10 53.77682 -3.04335 34 ft 5 kts 118°
2026-04-17 15:11 53.77681 -3.04237 34 ft 0 kts 100°
2026-04-17 15:12 53.77655 -3.04175 34 ft 17 kts 153°
2026-04-17 15:13 53.77503 -3.04310 34 ft 30 kts 212°
2026-04-17 15:13 53.77387 -3.04259 34 ft 21 kts 113°
2026-04-17 15:13 53.77305 -3.04043 33 ft 22 kts 128°
2026-04-17 15:13 53.77207 -3.03829 35 ft 29 kts 127°
2026-04-17 15:14 53.77079 -3.03548 34 ft 30 kts 127°
2026-04-17 15:14 53.76955 -3.03269 31 ft 29 kts 114°
2026-04-17 15:14 53.76914 -3.03179 30 ft 3 kts 323°
2026-04-17 15:14 53.77014 -3.03404 32 ft 55 kts 308°
2026-04-17 15:15 53.77352 -3.04149 61 ft 99 kts 307°
2026-04-17 15:15 53.77821 -3.05056 448 ft 101 kts 324°
2026-04-17 15:15 53.78584 -3.05219 787 ft 122 kts 349°
2026-04-17 15:15 53.79538 -3.05260 852 ft 149 kts 351°
2026-04-17 15:16 53.80428 -3.05925 766 ft 144 kts 303°
2026-04-17 15:16 53.81342 -3.06797 568 ft 171 kts 339°
2026-04-17 15:16 53.82473 -3.07303 567 ft 160 kts 339°
2026-04-17 15:16 53.83476 -3.07496 855 ft 138 kts 319°
2026-04-17 15:17 53.83559 -3.08764 1005 ft 114 kts 207°
2026-04-17 15:17 53.83427 -3.08809 1047 ft 116 kts 188°
2026-04-17 15:18 53.83401 -3.08809 1049 ft 116 kts 189°
2026-04-17 15:18 53.82711 -3.07750 258 ft 181 kts 123°
2026-04-17 15:18 53.82050 -3.06066 383 ft 156 kts 136°
2026-04-17 15:18 53.81264 -3.05188 489 ft 115 kts 175°
2026-04-17 15:19 53.80442 -3.04924 599 ft 115 kts 172°
2026-04-17 15:19 53.79795 -3.04107 821 ft 142 kts 118°
2026-04-17 15:19 53.79608 -3.02449 977 ft 138 kts 125°
2026-04-17 15:19 53.79149 -3.00973 1108 ft 144 kts 129°
2026-04-17 15:20 53.78889 -2.99322 1154 ft 165 kts 85°
2026-04-17 15:20 53.79601 -2.97747 1172 ft 171 kts 56°
2026-04-17 15:20 53.80074 -2.96072 1659 ft 137 kts 69°
2026-04-17 15:20 53.80522 -2.94579 1909 ft 150 kts 68°
2026-04-17 15:21 53.81027 -2.92953 2033 ft 160 kts 67°
2026-04-17 15:21 53.81513 -2.91200 1917 ft 171 kts 62°
2026-04-17 15:21 53.81891 -2.89274 1084 ft 189 kts 73°
2026-04-17 15:21 53.82226 -2.87340 1089 ft 149 kts 82°
2026-04-17 15:22 53.82448 -2.85760 832 ft 130 kts 80°
2026-04-17 15:22 53.82608 -2.84313 559 ft 117 kts 93°
2026-04-17 15:22 53.82697 -2.83088 466 ft 99 kts 84°
2026-04-17 15:22 53.82684 -2.82032 414 ft 92 kts 108°
2026-04-17 15:23 53.82465 -2.80769 525 ft 124 kts 120°
2026-04-17 15:23 53.81780 -2.80117 689 ft 117 kts 192°
2026-04-17 15:23 53.81172 -2.80910 912 ft 112 kts 227°
2026-04-17 15:23 53.80802 -2.82085 988 ft 121 kts 256°
2026-04-17 15:24 53.80527 -2.83386 1083 ft 118 kts 243°
2026-04-17 15:24 53.80183 -2.84684 1077 ft 123 kts 244°
2026-04-17 15:24 53.79867 -2.86053 1109 ft 125 kts 247°
2026-04-17 15:24 53.79690 -2.87486 1115 ft 125 kts 249°
2026-04-17 15:25 53.79208 -2.88746 1072 ft 129 kts 228°
2026-04-17 15:25 53.78620 -2.89870 1180 ft 126 kts 226°
2026-04-17 15:25 53.78203 -2.90592 1104 ft 133 kts 225°
2026-04-17 15:25 53.77511 -2.91714 928 ft 141 kts 223°
2026-04-17 15:26 53.76832 -2.92870 897 ft 135 kts 229°
2026-04-17 15:26 53.76628 -2.94335 713 ft 129 kts 279°
2026-04-17 15:26 53.76867 -2.95626 696 ft 104 kts 272°
2026-04-17 15:26 53.76959 -2.96792 693 ft 96 kts 265°
2026-04-17 15:27 53.76993 -2.97924 552 ft 103 kts 264°